Time;durP1;ratioP1;P1;durP2;ratioP2;P2;SDS_P1;SDS_P2;PMS_P1;PMS_P2;Temp;Humidity;BMP_temperature;BMP_pressure;BME280_temperature;BME280_humidity;BME280_pressure;Samples;Min_cycle;Max_cycle;Signal;HPM_P1;HPM_P2
2021/05/31 05:55:30;;;;;;;13.55;6.82;;;;;;;;;;4993583;23;20087;-72
2021/05/31 05:57:57;;;;;;;11.23;6.60;;;;;;;;;;4859786;29;20037;-71
2021/05/31 06:00:24;;;;;;;12.43;6.75;;;;;;;;;;4877375;29;20108;-69
2021/05/31 06:02:50;;;;;;;11.60;7.05;;;;;;;;;;4877988;29;20112;-65
2021/05/31 06:05:17;;;;;;;10.80;6.70;;;;;;;;;;4877522;29;20033;-74
2021/05/31 06:07:43;;;;;;;11.73;6.63;;;;;;;;;;4877610;29;20033;-72
2021/05/31 06:10:09;;;;;;;9.95;5.90;;;;;;;;;;4877067;29;20021;-73
2021/05/31 06:12:36;;;;;;;10.77;6.40;;;;;;;;;;4877309;29;20080;-73
2021/05/31 06:15:02;;;;;;;12.23;7.07;;;;;;;;;;4874896;29;20032;-73
2021/05/31 06:17:28;;;;;;;10.18;5.53;;;;;;;;;;4878002;29;20025;-69
2021/05/31 06:20:00;;;;;;;8.75;5.70;;;;;;;;;;4877216;29;20053;-69
2021/05/31 06:22:26;;;;;;;12.90;5.65;;;;;;;;;;4877472;29;20055;-70
2021/05/31 06:24:52;;;;;;;9.00;6.15;;;;;;;;;;4877250;29;20063;-78
2021/05/31 06:27:18;;;;;;;8.27;5.32;;;;;;;;;;4877186;29;20501;-68
2021/05/31 06:29:45;;;;;;;8.70;5.82;;;;;;;;;;4877083;29;20033;-69
2021/05/31 06:32:11;;;;;;;9.20;5.35;;;;;;;;;;4877029;29;20205;-70
2021/05/31 06:34:37;;;;;;;8.98;5.28;;;;;;;;;;4877239;29;20032;-71
2021/05/31 06:37:03;;;;;;;8.55;4.82;;;;;;;;;;4877850;29;20040;-71
2021/05/31 06:39:29;;;;;;;8.65;5.55;;;;;;;;;;4877751;29;20035;-66
2021/05/31 06:41:55;;;;;;;11.98;5.93;;;;;;;;;;4877726;29;20032;-70
2021/05/31 06:44:21;;;;;;;7.47;5.22;;;;;;;;;;4877600;29;20386;-68
2021/05/31 06:46:47;;;;;;;7.70;5.47;;;;;;;;;;4877205;29;20044;-67
2021/05/31 06:49:13;;;;;;;8.43;6.00;;;;;;;;;;4877515;29;20402;-68
2021/05/31 06:51:39;;;;;;;8.95;6.45;;;;;;;;;;4877848;29;20036;-68
2021/05/31 06:54:06;;;;;;;7.68;5.30;;;;;;;;;;4859032;29;20124;-66
2021/05/31 06:56:32;;;;;;;8.60;5.40;;;;;;;;;;4877072;29;20520;-68
2021/05/31 06:58:58;;;;;;;7.35;5.05;;;;;;;;;;4877245;29;20033;-65
2021/05/31 07:01:24;;;;;;;6.60;5.10;;;;;;;;;;4874069;29;20032;-66
2021/05/31 07:03:50;;;;;;;8.10;5.63;;;;;;;;;;4876610;29;20498;-68
2021/05/31 07:06:16;;;;;;;8.13;5.25;;;;;;;;;;4871462;29;20025;-62
2021/05/31 07:08:42;;;;;;;10.68;4.97;;;;;;;;;;4868432;29;20437;-69
2021/05/31 07:11:17;;;;;;;6.93;5.07;;;;;;;;;;4862053;29;20048;-67
2021/05/31 07:13:44;;;;;;;6.68;4.90;;;;;;;;;;4862412;29;20414;-65
2021/05/31 07:16:13;;;;;;;7.55;5.47;;;;;;;;;;4862272;29;20390;-61
2021/05/31 07:18:39;;;;;;;11.85;5.95;;;;;;;;;;4862400;29;20033;-63
2021/05/31 07:21:05;;;;;;;7.50;5.25;;;;;;;;;;4862560;29;20108;-66
2021/05/31 07:23:32;;;;;;;7.70;5.13;;;;;;;;;;4862178;29;20078;-66
2021/05/31 07:25:58;;;;;;;6.80;5.35;;;;;;;;;;4861193;29;20033;-62
2021/05/31 07:28:24;;;;;;;11.98;6.90;;;;;;;;;;4861894;29;20040;-67
2021/05/31 07:30:50;;;;;;;9.38;5.55;;;;;;;;;;4862287;29;20168;-64
2021/05/31 07:33:16;;;;;;;10.50;5.90;;;;;;;;;;4862435;29;20024;-65
2021/05/31 07:35:42;;;;;;;12.77;6.85;;;;;;;;;;4862290;29;20026;-68
2021/05/31 07:38:09;;;;;;;8.15;5.53;;;;;;;;;;4861860;29;20033;-71
2021/05/31 07:40:35;;;;;;;12.60;7.43;;;;;;;;;;4862079;29;20037;-69
2021/05/31 07:43:01;;;;;;;11.70;6.85;;;;;;;;;;4861555;29;20030;-69
2021/05/31 07:45:27;;;;;;;11.18;6.50;;;;;;;;;;4861608;29;20029;-63
2021/05/31 07:47:53;;;;;;;10.45;7.40;;;;;;;;;;4861893;29;20050;-65
2021/05/31 07:50:21;;;;;;;7.68;6.55;;;;;;;;;;4861635;29;20034;-63
2021/05/31 07:52:47;;;;;;;10.02;7.57;;;;;;;;;;4845005;29;20494;-68
2021/05/31 07:55:14;;;;;;;10.70;7.55;;;;;;;;;;4861855;29;20525;-68
2021/05/31 07:57:41;;;;;;;9.15;7.07;;;;;;;;;;4873834;29;20032;-65
2021/05/31 08:00:10;;;;;;;8.70;7.40;;;;;;;;;;4879845;29;20481;-64
2021/05/31 08:02:37;;;;;;;9.32;7.25;;;;;;;;;;4880211;29;20049;-64
2021/05/31 08:05:04;;;;;;;14.45;9.80;;;;;;;;;;4880004;29;20025;-63
2021/05/31 08:07:30;;;;;;;12.10;7.47;;;;;;;;;;4879651;29;20112;-64
2021/05/31 08:09:57;;;;;;;9.45;7.88;;;;;;;;;;4879452;29;20504;-64
2021/05/31 08:12:23;;;;;;;9.20;6.93;;;;;;;;;;4879580;29;20025;-64
2021/05/31 08:14:49;;;;;;;8.25;6.55;;;;;;;;;;4879498;29;20567;-64
2021/05/31 08:17:15;;;;;;;8.57;6.22;;;;;;;;;;4878788;29;20033;-66
2021/05/31 08:19:41;;;;;;;7.55;6.38;;;;;;;;;;4877628;29;20036;-66
2021/05/31 08:22:08;;;;;;;7.70;5.93;;;;;;;;;;4879211;29;20035;-65
2021/05/31 08:24:34;;;;;;;8.45;6.13;;;;;;;;;;4879293;29;20072;-64
2021/05/31 08:27:00;;;;;;;8.23;6.60;;;;;;;;;;4878835;29;20044;-64
2021/05/31 08:29:27;;;;;;;8.50;6.63;;;;;;;;;;4879259;29;20492;-63
2021/05/31 08:31:53;;;;;;;9.30;7.40;;;;;;;;;;4879233;29;20073;-62
2021/05/31 08:34:19;;;;;;;9.25;7.50;;;;;;;;;;4879320;29;20037;-63
2021/05/31 08:36:45;;;;;;;8.02;6.72;;;;;;;;;;4879024;29;20057;-63
2021/05/31 08:39:12;;;;;;;10.75;7.82;;;;;;;;;;4879184;29;20029;-64
2021/05/31 08:41:39;;;;;;;10.80;7.13;;;;;;;;;;4879454;29;20109;-62
2021/05/31 08:44:05;;;;;;;9.35;6.85;;;;;;;;;;4879360;29;20024;-63
2021/05/31 08:46:31;;;;;;;7.15;6.18;;;;;;;;;;4878736;29;20393;-66
2021/05/31 08:48:58;;;;;;;9.80;7.82;;;;;;;;;;4878888;29;20060;-64
2021/05/31 08:51:25;;;;;;;6.75;5.22;;;;;;;;;;4879010;29;20351;-63
2021/05/31 08:53:52;;;;;;;6.57;4.68;;;;;;;;;;4877898;29;20063;-66
2021/05/31 08:56:18;;;;;;;6.82;4.72;;;;;;;;;;4878788;29;20181;-62
2021/05/31 08:58:48;;;;;;;7.80;5.00;;;;;;;;;;4878939;29;20025;-63
2021/05/31 09:01:14;;;;;;;8.75;4.85;;;;;;;;;;4878834;29;20081;-64
2021/05/31 09:03:40;;;;;;;5.80;4.38;;;;;;;;;;4879282;29;20088;-63
2021/05/31 09:06:09;;;;;;;6.03;4.53;;;;;;;;;;4878602;29;20037;-65
2021/05/31 09:08:35;;;;;;;5.80;4.03;;;;;;;;;;4878514;29;20033;-63
2021/05/31 09:11:03;;;;;;;8.05;4.65;;;;;;;;;;4878265;29;20045;-71
2021/05/31 09:13:36;;;;;;;7.60;5.10;;;;;;;;;;4878620;29;20032;-66
2021/05/31 09:16:13;;;;;;;12.18;5.75;;;;;;;;;;4861162;29;20048;-67
2021/05/31 09:18:44;;;;;;;5.68;4.60;;;;;;;;;;4878756;29;20033;-68
2021/05/31 09:21:17;;;;;;;6.18;4.40;;;;;;;;;;4878410;29;20037;-66
2021/05/31 09:23:44;;;;;;;6.72;4.00;;;;;;;;;;4878509;29;20048;-69
2021/05/31 09:26:11;;;;;;;6.28;3.22;;;;;;;;;;4878357;29;20037;-66
2021/05/31 09:28:37;;;;;;;5.22;3.03;;;;;;;;;;4878040;29;20070;-67
2021/05/31 09:31:13;;;;;;;5.72;3.03;;;;;;;;;;4878071;29;20033;-67
2021/05/31 09:33:40;;;;;;;8.10;4.40;;;;;;;;;;4878096;29;20033;-67
2021/05/31 09:36:09;;;;;;;8.20;5.18;;;;;;;;;;4875699;29;20074;-65
2021/05/31 09:38:46;;;;;;;8.05;6.80;;;;;;;;;;4877779;29;20064;-65
2021/05/31 09:41:21;;;;;;;10.93;6.75;;;;;;;;;;4878074;29;20029;-62
2021/05/31 09:44:13;;;;;;;6.55;5.57;;;;;;;;;;4877687;29;20405;-64
2021/05/31 09:46:44;;;;;;;6.75;4.70;;;;;;;;;;4873670;29;20092;-64
2021/05/31 09:49:11;;;;;;;6.15;4.25;;;;;;;;;;4877056;29;20037;-63
2021/05/31 09:51:48;;;;;;;9.40;4.07;;;;;;;;;;4877084;29;20079;-64
2021/05/31 09:54:14;;;;;;;8.60;4.65;;;;;;;;;;4876926;29;20493;-66
2021/05/31 09:56:41;;;;;;;11.73;4.10;;;;;;;;;;4877366;29;20397;-64
2021/05/31 09:59:07;;;;;;;6.18;3.67;;;;;;;;;;4877543;29;20044;-62
2021/05/31 10:01:36;;;;;;;6.80;3.92;;;;;;;;;;4877617;29;20457;-66
2021/05/31 10:06:49;;;;;;;8.65;3.58;;;;;;;;;;4878292;29;20044;-62
2021/05/31 10:09:15;;;;;;;6.00;2.40;;;;;;;;;;4862603;29;20045;-64
2021/05/31 10:11:42;;;;;;;7.07;2.53;;;;;;;;;;4877330;29;20033;-63
2021/05/31 10:14:08;;;;;;;5.47;2.88;;;;;;;;;;4877505;29;20098;-65
2021/05/31 10:16:34;;;;;;;5.32;2.40;;;;;;;;;;4876677;29;20044;-65
2021/05/31 10:19:00;;;;;;;3.85;1.80;;;;;;;;;;4877203;29;20533;-64
2021/05/31 10:21:29;;;;;;;2.83;2.10;;;;;;;;;;4877357;29;20396;-64
2021/05/31 10:23:55;;;;;;;6.45;2.53;;;;;;;;;;4877483;29;20044;-63
2021/05/31 10:26:22;;;;;;;4.60;2.78;;;;;;;;;;4877577;29;20430;-62
2021/05/31 10:28:49;;;;;;;4.40;3.08;;;;;;;;;;4876510;29;20017;-61
2021/05/31 10:31:15;;;;;;;5.22;3.35;;;;;;;;;;4876518;29;20032;-63
2021/05/31 10:33:42;;;;;;;7.53;3.60;;;;;;;;;;4876559;29;20033;-62
2021/05/31 10:36:11;;;;;;;4.80;3.00;;;;;;;;;;4874567;29;20052;-62
2021/05/31 10:38:38;;;;;;;4.40;3.03;;;;;;;;;;4875686;29;20017;-63
2021/05/31 10:41:11;;;;;;;3.75;2.20;;;;;;;;;;4875227;29;20434;-63
2021/05/31 10:43:42;;;;;;;4.45;2.50;;;;;;;;;;4875274;29;20114;-63
2021/05/31 10:46:08;;;;;;;3.53;2.45;;;;;;;;;;4873762;29;20517;-63
2021/05/31 10:48:44;;;;;;;2.90;2.00;;;;;;;;;;4859684;29;20803;-62
2021/05/31 10:51:28;;;;;;;2.95;2.00;;;;;;;;;;4874540;29;20088;-63
2021/05/31 10:53:54;;;;;;;2.88;1.70;;;;;;;;;;4875332;29;20102;-61
2021/05/31 10:56:20;;;;;;;2.20;1.67;;;;;;;;;;4875614;29;20053;-62
2021/05/31 10:58:48;;;;;;;3.78;1.52;;;;;;;;;;4876121;29;20044;-61
2021/05/31 11:01:17;;;;;;;3.10;2.10;;;;;;;;;;4876279;29;20036;-61
2021/05/31 11:03:51;;;;;;;2.47;1.52;;;;;;;;;;4877123;29;20029;-61
2021/05/31 11:06:22;;;;;;;1.92;1.33;;;;;;;;;;4876496;29;20089;-64
2021/05/31 11:08:50;;;;;;;2.75;1.42;;;;;;;;;;4874224;29;20036;-61
2021/05/31 11:11:27;;;;;;;2.72;1.30;;;;;;;;;;4858975;29;20109;-63
2021/05/31 11:13:53;;;;;;;2.22;1.58;;;;;;;;;;4874565;29;20021;-64
2021/05/31 11:16:20;;;;;;;2.97;2.00;;;;;;;;;;4876212;29;20442;-63
2021/05/31 11:18:47;;;;;;;2.40;1.80;;;;;;;;;;4876037;29;20021;-60
2021/05/31 11:21:28;;;;;;;2.45;1.70;;;;;;;;;;4876865;29;20029;-61
2021/05/31 11:24:05;;;;;;;4.60;1.88;;;;;;;;;;4876931;29;20045;-63
2021/05/31 11:26:33;;;;;;;4.15;1.60;;;;;;;;;;4876994;29;20029;-66
2021/05/31 11:28:59;;;;;;;3.00;1.60;;;;;;;;;;4876191;29;20033;-65
2021/05/31 11:31:26;;;;;;;2.22;1.30;;;;;;;;;;4876671;29;20037;-62
2021/05/31 11:33:54;;;;;;;1.90;1.00;;;;;;;;;;4877003;29;20033;-61
2021/05/31 11:36:30;;;;;;;1.33;0.95;;;;;;;;;;4876077;29;20140;-61
2021/05/31 11:38:56;;;;;;;1.65;0.90;;;;;;;;;;4876584;29;20025;-60
2021/05/31 11:41:32;;;;;;;1.67;1.05;;;;;;;;;;4876594;29;20481;-64
2021/05/31 11:43:58;;;;;;;3.05;1.00;;;;;;;;;;4873697;29;20033;-61
2021/05/31 11:46:24;;;;;;;1.38;0.93;;;;;;;;;;4876919;29;20074;-62
2021/05/31 11:48:51;;;;;;;2.67;1.17;;;;;;;;;;4876127;29;20033;-65
2021/05/31 11:51:17;;;;;;;1.98;0.80;;;;;;;;;;4876899;29;20025;-64
2021/05/31 11:53:47;;;;;;;2.28;0.90;;;;;;;;;;4877086;29;20037;-61
2021/05/31 11:56:14;;;;;;;2.75;1.27;;;;;;;;;;4879919;29;20436;-65
2021/05/31 11:58:41;;;;;;;3.53;1.50;;;;;;;;;;4879958;29;20057;-66
2021/05/31 12:01:09;;;;;;;2.20;1.30;;;;;;;;;;4879812;29;20026;-63
2021/05/31 12:03:37;;;;;;;3.65;1.40;;;;;;;;;;4879420;29;20021;-63
2021/05/31 12:06:10;;;;;;;2.05;1.48;;;;;;;;;;4880011;29;20877;-63
2021/05/31 12:08:36;;;;;;;3.00;1.70;;;;;;;;;;4880014;29;20017;-63
2021/05/31 12:11:03;;;;;;;2.38;1.30;;;;;;;;;;4879603;29;20037;-61
2021/05/31 12:13:30;;;;;;;3.03;1.88;;;;;;;;;;4879455;29;20025;-66
2021/05/31 12:15:56;;;;;;;4.25;1.70;;;;;;;;;;4863109;29;20040;-66
2021/05/31 12:18:24;;;;;;;3.28;1.52;;;;;;;;;;4878754;29;20036;-63
2021/05/31 12:21:02;;;;;;;3.72;1.90;;;;;;;;;;4879750;29;20043;-61
2021/05/31 12:23:28;;;;;;;2.78;1.73;;;;;;;;;;4879946;29;20037;-66
2021/05/31 12:25:58;;;;;;;4.20;2.15;;;;;;;;;;4879718;29;20033;-63
2021/05/31 12:28:29;;;;;;;4.40;2.30;;;;;;;;;;4879636;29;20032;-62
2021/05/31 12:30:55;;;;;;;3.70;1.92;;;;;;;;;;4879267;29;20029;-65
2021/05/31 12:33:21;;;;;;;5.82;2.15;;;;;;;;;;4861825;29;20052;-65
2021/05/31 12:35:49;;;;;;;4.45;2.20;;;;;;;;;;4879562;29;20041;-68
2021/05/31 12:38:17;;;;;;;2.92;2.20;;;;;;;;;;4879118;29;20056;-61
2021/05/31 12:40:43;;;;;;;6.30;2.40;;;;;;;;;;4878657;29;20036;-65
2021/05/31 12:43:10;;;;;;;3.50;2.22;;;;;;;;;;4879056;29;20483;-65
2021/05/31 12:45:42;;;;;;;3.28;2.00;;;;;;;;;;4879294;29;20029;-65
2021/05/31 12:48:16;;;;;;;2.92;1.73;;;;;;;;;;4878445;29;20033;-65
2021/05/31 12:50:42;;;;;;;2.35;1.45;;;;;;;;;;4877042;29;20021;-64
2021/05/31 12:53:11;;;;;;;2.95;1.42;;;;;;;;;;4872648;29;20092;-66
2021/05/31 12:55:38;;;;;;;3.63;1.33;;;;;;;;;;4878492;29;20391;-63
2021/05/31 12:58:12;;;;;;;2.60;1.40;;;;;;;;;;4878160;29;20052;-65
2021/05/31 13:00:38;;;;;;;2.30;1.33;;;;;;;;;;4877105;29;20028;-67
2021/05/31 13:03:04;;;;;;;3.70;1.38;;;;;;;;;;4878243;29;20033;-68
2021/05/31 13:05:32;;;;;;;2.53;1.40;;;;;;;;;;4877850;29;20036;-61
2021/05/31 13:07:59;;;;;;;4.40;1.85;;;;;;;;;;4877896;29;20032;-63
2021/05/31 13:10:30;;;;;;;5.43;2.10;;;;;;;;;;4877682;29;20057;-62
2021/05/31 13:12:56;;;;;;;3.58;2.08;;;;;;;;;;4878515;29;20104;-63
2021/05/31 13:15:34;;;;;;;3.65;2.10;;;;;;;;;;4878485;29;20045;-65
2021/05/31 13:18:05;;;;;;;3.08;1.95;;;;;;;;;;4878620;29;20416;-68
2021/05/31 13:20:32;;;;;;;6.95;1.95;;;;;;;;;;4878492;29;20039;-64
2021/05/31 13:22:59;;;;;;;3.97;2.00;;;;;;;;;;4878581;29;20033;-63
2021/05/31 13:25:26;;;;;;;2.10;1.38;;;;;;;;;;4878384;29;20043;-62
2021/05/31 13:27:52;;;;;;;2.92;2.10;;;;;;;;;;4878546;29;20112;-62
2021/05/31 13:30:20;;;;;;;4.00;2.10;;;;;;;;;;4878463;29;20029;-62
2021/05/31 13:32:56;;;;;;;3.63;2.20;;;;;;;;;;4878122;29;20021;-63
2021/05/31 13:35:24;;;;;;;2.58;1.90;;;;;;;;;;4878325;29;20141;-63
2021/05/31 13:38:01;;;;;;;2.97;1.73;;;;;;;;;;4878380;29;20478;-64
2021/05/31 13:40:28;;;;;;;2.45;1.55;;;;;;;;;;4877894;29;20037;-64
2021/05/31 13:42:55;;;;;;;3.05;2.00;;;;;;;;;;4878291;29;20544;-62
2021/05/31 13:45:22;;;;;;;4.28;2.08;;;;;;;;;;4878103;29;20400;-62
2021/05/31 13:47:48;;;;;;;4.30;2.40;;;;;;;;;;4878050;29;20032;-63
2021/05/31 13:50:24;;;;;;;2.97;1.90;;;;;;;;;;4861247;29;20041;-64
2021/05/31 13:52:50;;;;;;;5.25;2.10;;;;;;;;;;4878004;29;20700;-61
2021/05/31 13:55:16;;;;;;;3.40;2.35;;;;;;;;;;4877572;29;20067;-68
2021/05/31 13:57:43;;;;;;;5.50;2.33;;;;;;;;;;4878279;29;20025;-63
2021/05/31 14:00:10;;;;;;;2.95;2.10;;;;;;;;;;4878297;29;20021;-62
2021/05/31 14:02:37;;;;;;;3.67;2.28;;;;;;;;;;4877963;29;20029;-60
2021/05/31 14:05:03;;;;;;;2.50;1.70;;;;;;;;;;4877850;29;20033;-61
2021/05/31 14:07:29;;;;;;;3.53;2.28;;;;;;;;;;4877676;29;20040;-61
2021/05/31 14:09:56;;;;;;;4.78;2.97;;;;;;;;;;4877803;29;20616;-63
2021/05/31 14:12:22;;;;;;;3.22;2.28;;;;;;;;;;4877607;29;20029;-61
2021/05/31 14:14:48;;;;;;;3.00;2.05;;;;;;;;;;4877595;29;20473;-61
2021/05/31 14:17:14;;;;;;;4.40;2.22;;;;;;;;;;4876744;29;20490;-60
2021/05/31 14:19:40;;;;;;;3.83;2.20;;;;;;;;;;4877496;29;20397;-61
2021/05/31 14:22:06;;;;;;;2.45;1.85;;;;;;;;;;4877263;29;20029;-61
2021/05/31 14:24:32;;;;;;;2.92;2.10;;;;;;;;;;4877428;29;20043;-61
2021/05/31 14:26:59;;;;;;;4.88;2.10;;;;;;;;;;4877700;29;20104;-65
2021/05/31 14:29:26;;;;;;;4.57;2.10;;;;;;;;;;4877174;29;20068;-60
2021/05/31 14:31:52;;;;;;;4.07;2.03;;;;;;;;;;4876991;29;20029;-60
2021/05/31 14:34:18;;;;;;;2.22;1.80;;;;;;;;;;4876690;29;20108;-60
2021/05/31 14:36:44;;;;;;;2.75;2.17;;;;;;;;;;4875799;29;20043;-61
2021/05/31 14:39:10;;;;;;;3.72;2.50;;;;;;;;;;4876353;29;20032;-60
2021/05/31 14:41:38;;;;;;;6.43;3.38;;;;;;;;;;4876315;29;20048;-60
2021/05/31 14:44:04;;;;;;;4.18;2.55;;;;;;;;;;4876937;29;20107;-62
2021/05/31 14:46:30;;;;;;;3.53;2.80;;;;;;;;;;4876815;29;20033;-61
2021/05/31 14:48:57;;;;;;;3.15;1.98;;;;;;;;;;4876781;29;20389;-61
2021/05/31 14:51:23;;;;;;;2.70;1.92;;;;;;;;;;4877603;29;20482;-60
2021/05/31 14:53:49;;;;;;;3.80;2.00;;;;;;;;;;4876750;29;20120;-61
2021/05/31 14:56:15;;;;;;;3.55;1.85;;;;;;;;;;4877475;29;20033;-59
2021/05/31 14:58:41;;;;;;;3.47;1.80;;;;;;;;;;4877600;29;20401;-61
2021/05/31 15:01:08;;;;;;;2.85;2.05;;;;;;;;;;4877403;29;20478;-67
2021/05/31 15:03:34;;;;;;;2.63;1.80;;;;;;;;;;4876899;29;20095;-65
2021/05/31 15:06:01;;;;;;;5.13;2.30;;;;;;;;;;4877299;29;20025;-60
2021/05/31 15:08:27;;;;;;;3.72;2.13;;;;;;;;;;4877076;29;20025;-64
2021/05/31 15:10:54;;;;;;;3.00;1.98;;;;;;;;;;4877111;29;20109;-61
2021/05/31 15:13:20;;;;;;;3.53;1.85;;;;;;;;;;4876772;29;20084;-62
2021/05/31 15:15:46;;;;;;;2.50;1.80;;;;;;;;;;4876671;29;20051;-59
2021/05/31 15:18:12;;;;;;;3.70;1.85;;;;;;;;;;4877114;29;20167;-60
2021/05/31 15:20:39;;;;;;;3.35;2.08;;;;;;;;;;4876723;29;20082;-59
2021/05/31 15:23:05;;;;;;;3.63;1.90;;;;;;;;;;4876667;29;20219;-60
2021/05/31 15:25:31;;;;;;;4.32;2.00;;;;;;;;;;4876761;29;20025;-61
2021/05/31 15:27:58;;;;;;;3.35;2.00;;;;;;;;;;4871485;29;20491;-60
2021/05/31 15:30:24;;;;;;;2.35;1.83;;;;;;;;;;4871703;29;20397;-61
2021/05/31 15:32:50;;;;;;;3.00;2.05;;;;;;;;;;4871098;29;20026;-65
2021/05/31 15:35:16;;;;;;;4.07;1.95;;;;;;;;;;4869494;29;20029;-60
2021/05/31 15:37:42;;;;;;;4.45;2.42;;;;;;;;;;4871682;29;20029;-58
2021/05/31 15:40:10;;;;;;;4.05;2.33;;;;;;;;;;4870511;29;20032;-59
2021/05/31 15:42:36;;;;;;;4.15;2.50;;;;;;;;;;4869684;29;20069;-63
2021/05/31 15:45:04;;;;;;;3.60;2.60;;;;;;;;;;4871413;29;20032;-60
2021/05/31 15:47:30;;;;;;;4.68;3.03;;;;;;;;;;4870471;29;20030;-63
2021/05/31 15:49:56;;;;;;;5.30;3.15;;;;;;;;;;4869958;29;20074;-59
2021/05/31 15:52:22;;;;;;;3.80;2.50;;;;;;;;;;4874612;29;20144;-62
2021/05/31 15:54:48;;;;;;;3.85;2.03;;;;;;;;;;4860631;29;20053;-60
2021/05/31 15:57:14;;;;;;;2.58;1.92;;;;;;;;;;4861330;29;20030;-60
2021/05/31 15:59:42;;;;;;;4.18;1.88;;;;;;;;;;4861358;29;20109;-57
2021/05/31 16:02:08;;;;;;;5.97;1.70;;;;;;;;;;4861600;29;20866;-58
2021/05/31 16:04:34;;;;;;;2.40;1.70;;;;;;;;;;4861227;29;20038;-64
2021/05/31 16:07:00;;;;;;;3.00;1.75;;;;;;;;;;4874504;29;20037;-59
2021/05/31 16:09:26;;;;;;;3.95;2.08;;;;;;;;;;4879742;29;20081;-58
2021/05/31 16:11:52;;;;;;;2.92;2.13;;;;;;;;;;4879505;29;20103;-59
2021/05/31 16:14:21;;;;;;;4.43;2.35;;;;;;;;;;4878993;29;20116;-57
2021/05/31 16:16:48;;;;;;;4.82;2.22;;;;;;;;;;4878980;29;20029;-57
2021/05/31 16:19:14;;;;;;;2.33;1.73;;;;;;;;;;4879128;29;20060;-57
2021/05/31 16:21:40;;;;;;;2.22;1.80;;;;;;;;;;4870657;29;20033;-57
2021/05/31 16:24:08;;;;;;;3.03;2.10;;;;;;;;;;4866422;29;20038;-59
2021/05/31 16:26:34;;;;;;;4.40;2.17;;;;;;;;;;4865319;29;20113;-58
2021/05/31 16:29:00;;;;;;;5.45;2.45;;;;;;;;;;4872426;29;20036;-63
2021/05/31 16:31:28;;;;;;;4.15;2.65;;;;;;;;;;4868292;29;20057;-60
2021/05/31 16:33:54;;;;;;;4.22;2.60;;;;;;;;;;4866588;29;20390;-58
2021/05/31 16:36:21;;;;;;;5.07;2.45;;;;;;;;;;4875371;29;20127;-59
2021/05/31 16:38:47;;;;;;;3.05;2.30;;;;;;;;;;4869560;29;20021;-58
2021/05/31 16:41:13;;;;;;;3.42;2.00;;;;;;;;;;4869290;29;20449;-58
2021/05/31 16:43:39;;;;;;;4.63;1.95;;;;;;;;;;4869128;29;20470;-59
2021/05/31 16:46:05;;;;;;;4.22;2.42;;;;;;;;;;4868197;29;20036;-59
2021/05/31 16:48:31;;;;;;;5.28;3.08;;;;;;;;;;4877925;29;20045;-65
2021/05/31 16:51:08;;;;;;;5.03;2.38;;;;;;;;;;4878863;29;21407;-60
2021/05/31 16:53:34;;;;;;;2.42;1.70;;;;;;;;;;4876301;29;20354;-61
2021/05/31 16:56:01;;;;;;;4.25;2.20;;;;;;;;;;4878726;29;20140;-64
2021/05/31 16:58:27;;;;;;;4.20;1.63;;;;;;;;;;4878778;29;20496;-59
2021/05/31 17:00:53;;;;;;;4.75;2.22;;;;;;;;;;4878334;29;20083;-58
2021/05/31 17:03:19;;;;;;;4.60;2.65;;;;;;;;;;4878801;29;20112;-67
2021/05/31 17:05:45;;;;;;;6.03;2.75;;;;;;;;;;4878664;29;20040;-59
2021/05/31 17:08:12;;;;;;;5.38;2.70;;;;;;;;;;4878124;29;20526;-61
2021/05/31 17:14:45;;;;;;;5.07;2.17;;;;;;;;;;4878402;29;20032;-59
2021/05/31 17:19:33;;;;;;;4.95;2.30;;;;;;;;;;4784343;30;20102;-63
2021/05/31 17:21:59;;;;;;;6.53;2.80;;;;;;;;;;4787025;29;20446;-65
2021/05/31 17:24:25;;;;;;;5.07;3.05;;;;;;;;;;4783878;29;20241;-65
2021/05/31 17:26:53;;;;;;;2.60;1.67;;;;;;;;;;4784686;30;20117;-65
2021/05/31 17:29:21;;;;;;;2.70;1.70;;;;;;;;;;4784475;30;20585;-65
2021/05/31 17:34:16;;;;;;;3.10;1.83;;;;;;;;;;4784862;29;20066;-60
2021/05/31 17:36:43;;;;;;;5.25;1.65;;;;;;;;;;4792054;29;20051;-60
2021/05/31 17:39:10;;;;;;;2.85;1.77;;;;;;;;;;4794821;29;20193;-61
2021/05/31 17:41:37;;;;;;;4.18;1.50;;;;;;;;;;4792640;29;20578;-62
2021/05/31 17:44:04;;;;;;;3.85;2.10;;;;;;;;;;4795335;29;20035;-60
2021/05/31 17:46:30;;;;;;;4.82;2.58;;;;;;;;;;4792102;29;20468;-64
2021/05/31 17:48:56;;;;;;;5.30;3.20;;;;;;;;;;4795439;29;20062;-63
2021/05/31 17:51:22;;;;;;;6.05;3.05;;;;;;;;;;4859735;29;20045;-61
2021/05/31 17:53:48;;;;;;;3.88;2.80;;;;;;;;;;4877086;29;20112;-61
2021/05/31 17:56:14;;;;;;;4.60;2.72;;;;;;;;;;4877476;29;20423;-67
2021/05/31 17:58:41;;;;;;;5.10;2.65;;;;;;;;;;4876968;29;20021;-61
2021/05/31 18:01:07;;;;;;;6.55;3.17;;;;;;;;;;4877442;29;20029;-67
2021/05/31 18:03:33;;;;;;;4.97;2.83;;;;;;;;;;4877139;29;20033;-62
2021/05/31 18:05:59;;;;;;;3.40;2.40;;;;;;;;;;4877801;29;20037;-60
2021/05/31 18:08:26;;;;;;;6.00;2.65;;;;;;;;;;4878205;29;20777;-60
2021/05/31 18:10:52;;;;;;;5.43;2.70;;;;;;;;;;4877806;29;20401;-66
2021/05/31 18:13:18;;;;;;;4.28;2.58;;;;;;;;;;4877020;29;20025;-67
2021/05/31 18:15:45;;;;;;;5.57;2.70;;;;;;;;;;4877424;29;20045;-61
2021/05/31 18:18:11;;;;;;;7.50;3.70;;;;;;;;;;4876894;29;20374;-61
2021/05/31 18:20:38;;;;;;;4.93;2.75;;;;;;;;;;4877533;29;20442;-60
2021/05/31 18:23:06;;;;;;;4.60;2.10;;;;;;;;;;4877064;29;20029;-60
2021/05/31 18:25:33;;;;;;;5.20;1.77;;;;;;;;;;4877330;29;20078;-63
2021/05/31 18:27:59;;;;;;;3.53;1.73;;;;;;;;;;4877190;29;20108;-60
2021/05/31 18:30:27;;;;;;;4.45;1.85;;;;;;;;;;4877152;29;20509;-62
2021/05/31 18:32:58;;;;;;;5.30;1.90;;;;;;;;;;4876588;29;20040;-60
2021/05/31 18:35:37;;;;;;;4.80;1.55;;;;;;;;;;4876500;29;20148;-67
2021/05/31 18:38:04;;;;;;;3.17;1.90;;;;;;;;;;4873046;29;20184;-63
2021/05/31 18:40:30;;;;;;;3.63;2.38;;;;;;;;;;4877048;29;20025;-60
2021/05/31 18:42:57;;;;;;;5.97;2.85;;;;;;;;;;4876890;29;20033;-60
2021/05/31 18:45:23;;;;;;;4.82;2.25;;;;;;;;;;4877411;29;20021;-60
2021/05/31 18:47:49;;;;;;;7.28;2.70;;;;;;;;;;4875656;29;20112;-60
2021/05/31 18:50:15;;;;;;;4.18;2.38;;;;;;;;;;4876310;29;20103;-64
2021/05/31 18:52:41;;;;;;;5.57;2.65;;;;;;;;;;4876777;29;20029;-59
2021/05/31 18:55:08;;;;;;;4.13;2.50;;;;;;;;;;4876544;29;20059;-61
2021/05/31 18:57:34;;;;;;;4.80;2.80;;;;;;;;;;4876814;29;20029;-60
2021/05/31 19:00:05;;;;;;;4.68;2.78;;;;;;;;;;4876753;29;20469;-62
2021/05/31 19:02:31;;;;;;;6.55;3.22;;;;;;;;;;4877406;29;20028;-61
2021/05/31 19:04:58;;;;;;;9.20;4.70;;;;;;;;;;4882753;29;20494;-62
2021/05/31 19:07:25;;;;;;;5.60;3.30;;;;;;;;;;4882223;29;20114;-65
2021/05/31 19:09:51;;;;;;;6.93;3.50;;;;;;;;;;4882613;29;20112;-59
2021/05/31 19:12:17;;;;;;;8.23;3.53;;;;;;;;;;4882313;29;20029;-64
2021/05/31 19:14:43;;;;;;;6.32;3.80;;;;;;;;;;4881006;29;20064;-59
2021/05/31 19:17:09;;;;;;;8.05;3.63;;;;;;;;;;4882530;29;20037;-62
2021/05/31 19:19:36;;;;;;;10.23;5.85;;;;;;;;;;4882876;29;20037;-59
2021/05/31 19:22:04;;;;;;;6.68;4.53;;;;;;;;;;4881665;29;20420;-61
2021/05/31 19:24:30;;;;;;;8.60;3.95;;;;;;;;;;4881290;29;20057;-60
2021/05/31 19:26:56;;;;;;;7.05;3.63;;;;;;;;;;4882104;29;20502;-61
2021/05/31 19:29:22;;;;;;;5.80;3.40;;;;;;;;;;4882709;29;20036;-62
2021/05/31 19:31:48;;;;;;;7.07;4.30;;;;;;;;;;4881901;29;20029;-64
2021/05/31 19:34:17;;;;;;;8.70;5.10;;;;;;;;;;4882369;29;20041;-62
2021/05/31 19:36:43;;;;;;;8.13;5.30;;;;;;;;;;4882292;29;20099;-62
2021/05/31 19:39:11;;;;;;;8.30;4.22;;;;;;;;;;4882951;29;20053;-60
2021/05/31 19:41:37;;;;;;;7.13;4.45;;;;;;;;;;4882892;29;20056;-68
2021/05/31 19:44:03;;;;;;;8.57;4.65;;;;;;;;;;4882566;29;20025;-66
2021/05/31 19:46:29;;;;;;;8.70;4.55;;;;;;;;;;4882643;29;20511;-62
2021/05/31 19:48:56;;;;;;;9.93;4.93;;;;;;;;;;4882622;29;20064;-69
2021/05/31 19:51:32;;;;;;;7.43;4.07;;;;;;;;;;4882264;29;20044;-64
2021/05/31 19:59:46;;;;;;;7.05;4.20;;;;;;;;;;4883050;29;20036;-61
2021/05/31 20:02:13;;;;;;;7.30;4.00;;;;;;;;;;4883266;29;20029;-60
2021/05/31 20:04:40;;;;;;;5.93;3.60;;;;;;;;;;4882196;29;20033;-59
2021/05/31 20:09:53;;;;;;;7.97;4.43;;;;;;;;;;4883447;29;20040;-62
2021/05/31 20:12:20;;;;;;;6.55;4.93;;;;;;;;;;4883166;29;20060;-61
2021/05/31 20:14:46;;;;;;;7.25;4.97;;;;;;;;;;4880974;29;20037;-62
2021/05/31 20:17:13;;;;;;;8.43;5.30;;;;;;;;;;4878936;29;20204;-59
2021/05/31 20:19:39;;;;;;;8.88;5.68;;;;;;;;;;4879931;29;20033;-59
2021/05/31 20:22:06;;;;;;;8.95;5.40;;;;;;;;;;4879712;29;20040;-57
2021/05/31 20:24:32;;;;;;;10.52;5.40;;;;;;;;;;4877093;29;20051;-61
2021/05/31 20:26:58;;;;;;;8.32;5.18;;;;;;;;;;4879000;29;20032;-61
2021/05/31 20:29:25;;;;;;;8.75;5.47;;;;;;;;;;4878597;29;20101;-62
2021/05/31 20:31:51;;;;;;;7.63;4.40;;;;;;;;;;4878382;29;20116;-57
2021/05/31 20:34:18;;;;;;;8.13;4.45;;;;;;;;;;4878154;29;20036;-64
2021/05/31 20:36:44;;;;;;;7.65;4.68;;;;;;;;;;4877938;29;20044;-60
2021/05/31 20:39:10;;;;;;;8.05;4.32;;;;;;;;;;4878991;29;20031;-59
2021/05/31 20:41:37;;;;;;;6.93;4.60;;;;;;;;;;4878314;29;20036;-61
2021/05/31 20:44:04;;;;;;;6.40;4.18;;;;;;;;;;4861764;29;20025;-60
2021/05/31 20:46:32;;;;;;;6.70;4.05;;;;;;;;;;4878897;29;20055;-63
2021/05/31 20:48:58;;;;;;;6.93;4.18;;;;;;;;;;4878954;29;20099;-63
2021/05/31 20:51:24;;;;;;;7.68;5.22;;;;;;;;;;4878706;29;20491;-62
2021/05/31 20:53:50;;;;;;;9.55;4.97;;;;;;;;;;4878111;29;20544;-63
2021/05/31 20:56:16;;;;;;;7.70;4.13;;;;;;;;;;4878484;29;20410;-62